Dingwall, United Kingdom
Current Conditions -  °F | °C
As of 2:20 AM on Wednesday 22 Oct 2014 (Local Time) from EGPE Reporting Station
Broken Clouds Broken Clouds  
Wind Chill: 38°   Ceiling: 4600
Heat Index: 45°   Visibility: 6mi
Dew Point: 41°   Wind: 13mph
Humidity: 87%   Direction: 240°WSW
Pressure: 29.97"   Gusts: NA
Location:  57.6°N, 4.43°W
Report Text: EGPE 220120Z AUTO 24011KT 9999 BKN046/// 07/05 Q1015
Loading
Personal Weather Stations






























Interactive Weather Map
Tropical Storm Tracking
New forecast layout! Learn more

10-Day Weather Forecast

Advertisements
Track Severe Weather on mobile